Macatuba, Brazil
Current Conditions -  °F | °C
As of 3:00 AM on Tuesday 23 Dec 2014 (Local Time) from SBBU Reporting Station
Overcast Overcast  
Wind Chill: 73°   Ceiling: 600
Heat Index: 73°   Visibility: 6mi
Dew Point: 73°   Wind: 0mph
Humidity: 100%   Direction: NA
Pressure: 29.94"   Gusts: NA
Location:  22.5°S, 48.71°W
Report Text: SBBU 230500Z 00000KT 9999 BKN006 OVC015 23/23 Q1014
Loading
Personal Weather Stations






























Interactive Weather Map New forecast layout! Learn more

10-Day Weather Forecast

Advertisements
Track Severe Weather on mobile